Time;durP1;ratioP1;P1;durP2;ratioP2;P2;SDS_P1;SDS_P2;PMS_P1;PMS_P2;Temp;Humidity;BMP_temperature;BMP_pressure;BME280_temperature;BME280_humidity;BME280_pressure;Samples;Min_cycle;Max_cycle;Signal;HPM_P1;HPM_P2
2023/01/09 00:00:55;;;;;;;6.77;5.63;;;;;;;;;;5074650;28;20277;-57
2023/01/09 00:03:21;;;;;;;6.50;5.67;;;;;;;;;;5055508;28;20314;-58
2023/01/09 00:05:48;;;;;;;8.13;6.70;;;;;;;;;;5038523;28;20228;-58
2023/01/09 00:08:14;;;;;;;7.10;6.40;;;;;;;;;;5044772;28;20319;-59
2023/01/09 00:10:41;;;;;;;8.13;6.30;;;;;;;;;;5050658;28;20240;-59
2023/01/09 00:13:09;;;;;;;7.60;6.40;;;;;;;;;;5046293;28;20338;-57
2023/01/09 00:15:36;;;;;;;7.07;5.87;;;;;;;;;;5089050;28;20708;-58
2023/01/09 00:18:02;;;;;;;8.07;6.33;;;;;;;;;;5078022;28;20266;-56
2023/01/09 00:20:29;;;;;;;8.10;6.77;;;;;;;;;;5064858;28;20807;-57
2023/01/09 00:22:55;;;;;;;8.00;6.70;;;;;;;;;;5065090;28;20315;-58
2023/01/09 00:25:22;;;;;;;7.43;6.77;;;;;;;;;;5064540;28;20794;-58
2023/01/09 00:27:49;;;;;;;7.83;6.57;;;;;;;;;;5062203;28;20586;-57
2023/01/09 00:30:18;;;;;;;7.80;6.47;;;;;;;;;;5054208;28;20231;-58
2023/01/09 00:32:44;;;;;;;8.23;7.37;;;;;;;;;;5072755;28;20658;-58
2023/01/09 00:35:14;;;;;;;8.20;7.10;;;;;;;;;;5059753;28;20321;-57
2023/01/09 00:37:40;;;;;;;7.37;6.60;;;;;;;;;;5073832;28;20255;-59
2023/01/09 00:40:07;;;;;;;7.37;6.53;;;;;;;;;;5086430;28;20234;-57
2023/01/09 00:42:35;;;;;;;8.37;7.43;;;;;;;;;;5080201;28;20284;-57
2023/01/09 00:45:03;;;;;;;8.43;6.93;;;;;;;;;;5065776;28;20235;-58
2023/01/09 00:47:32;;;;;;;8.40;6.97;;;;;;;;;;5061333;28;20228;-57
2023/01/09 00:50:00;;;;;;;8.00;7.20;;;;;;;;;;5060328;28;20261;-57
2023/01/09 00:52:27;;;;;;;8.60;7.50;;;;;;;;;;5065136;28;21156;-57
2023/01/09 00:54:54;;;;;;;7.63;6.90;;;;;;;;;;5060520;28;20795;-57
2023/01/09 00:57:20;;;;;;;7.97;6.93;;;;;;;;;;5066121;28;20231;-58
2023/01/09 00:59:47;;;;;;;10.60;7.93;;;;;;;;;;5049373;28;20833;-57
2023/01/09 01:02:13;;;;;;;8.33;7.30;;;;;;;;;;5051167;28;20314;-57
2023/01/09 01:07:39;;;;;;;9.30;7.47;;;;;;;;;;5045757;28;20231;-59
2023/01/09 01:10:06;;;;;;;8.47;7.30;;;;;;;;;;5050770;28;20231;-59
2023/01/09 01:12:32;;;;;;;8.27;7.23;;;;;;;;;;5071160;28;20260;-57
2023/01/09 01:14:58;;;;;;;12.90;7.57;;;;;;;;;;5083156;28;20250;-58
2023/01/09 01:17:25;;;;;;;11.30;8.90;;;;;;;;;;5066466;28;20321;-59
2023/01/09 01:19:53;;;;;;;9.33;8.07;;;;;;;;;;5071685;28;20475;-58
2023/01/09 01:22:19;;;;;;;9.30;8.30;;;;;;;;;;5072157;28;20325;-60
2023/01/09 01:24:45;;;;;;;9.87;7.77;;;;;;;;;;5060035;28;20713;-58
2023/01/09 01:27:12;;;;;;;9.50;8.10;;;;;;;;;;5064899;28;20716;-56
2023/01/09 01:29:38;;;;;;;12.27;9.17;;;;;;;;;;5060731;28;20261;-59
2023/01/09 01:32:05;;;;;;;10.47;8.03;;;;;;;;;;5073568;28;20314;-58
2023/01/09 01:34:31;;;;;;;9.43;8.07;;;;;;;;;;5059495;28;20323;-57
2023/01/09 01:36:59;;;;;;;10.37;8.13;;;;;;;;;;5047815;28;20250;-58
2023/01/09 01:39:25;;;;;;;9.43;8.17;;;;;;;;;;5055354;28;20224;-57
2023/01/09 01:41:52;;;;;;;10.17;9.13;;;;;;;;;;5057859;28;20239;-57
2023/01/09 01:44:37;;;;;;;9.70;8.17;;;;;;;;;;5063243;28;20239;-56
2023/01/09 01:47:03;;;;;;;11.83;9.30;;;;;;;;;;5063372;28;20674;-58
2023/01/09 01:49:30;;;;;;;10.67;8.73;;;;;;;;;;5070097;28;20656;-58
2023/01/09 01:51:57;;;;;;;10.80;8.73;;;;;;;;;;5044734;28;20282;-58
2023/01/09 01:54:26;;;;;;;11.10;9.40;;;;;;;;;;5051526;28;20232;-58
2023/01/09 01:56:57;;;;;;;10.43;9.40;;;;;;;;;;5052116;28;20250;-57
2023/01/09 01:59:25;;;;;;;11.20;9.27;;;;;;;;;;5036666;28;20235;-57
2023/01/09 02:01:53;;;;;;;10.57;8.97;;;;;;;;;;5039771;28;20247;-58
2023/01/09 02:04:20;;;;;;;8.90;7.73;;;;;;;;;;5044396;28;20251;-58
2023/01/09 02:06:46;;;;;;;9.33;8.43;;;;;;;;;;5053033;28;20310;-58
2023/01/09 02:09:14;;;;;;;9.90;8.87;;;;;;;;;;5060985;28;20223;-57
2023/01/09 02:11:45;;;;;;;9.90;8.67;;;;;;;;;;5074513;28;20322;-58
2023/01/09 02:14:12;;;;;;;10.03;9.03;;;;;;;;;;5045806;28;20235;-58
2023/01/09 02:16:41;;;;;;;11.10;9.47;;;;;;;;;;5056103;28;20282;-57
2023/01/09 02:19:22;;;;;;;10.50;8.57;;;;;;;;;;5058619;28;20322;-57
2023/01/09 02:21:55;;;;;;;9.73;8.73;;;;;;;;;;5045376;28;20250;-57
2023/01/09 02:24:38;;;;;;;11.03;9.87;;;;;;;;;;5064198;28;20472;-57
2023/01/09 02:27:12;;;;;;;11.73;9.10;;;;;;;;;;5059034;28;20317;-57
2023/01/09 02:29:48;;;;;;;12.43;8.87;;;;;;;;;;5072244;28;20230;-58
2023/01/09 02:32:22;;;;;;;11.37;9.93;;;;;;;;;;5061281;28;20231;-58
2023/01/09 02:34:53;;;;;;;13.27;10.00;;;;;;;;;;5074348;28;20749;-58
2023/01/09 02:37:22;;;;;;;11.13;9.67;;;;;;;;;;5055837;28;20251;-57
2023/01/09 02:39:51;;;;;;;12.43;10.83;;;;;;;;;;5042207;28;20240;-58
2023/01/09 02:42:20;;;;;;;11.20;9.93;;;;;;;;;;5077966;28;20246;-59
2023/01/09 02:44:46;;;;;;;12.47;11.17;;;;;;;;;;5074017;28;20314;-57
2023/01/09 02:47:28;;;;;;;11.37;10.27;;;;;;;;;;5052421;28;20255;-58
2023/01/09 02:49:56;;;;;;;13.13;11.43;;;;;;;;;;5057417;28;20219;-57
2023/01/09 02:52:28;;;;;;;13.40;11.63;;;;;;;;;;5052752;28;20322;-57
2023/01/09 02:54:57;;;;;;;13.63;12.10;;;;;;;;;;5042986;28;20231;-57
2023/01/09 02:57:42;;;;;;;15.10;10.63;;;;;;;;;;5038520;28;20235;-58
2023/01/09 03:00:14;;;;;;;14.33;11.20;;;;;;;;;;5030593;28;20261;-58
2023/01/09 03:02:47;;;;;;;13.03;11.60;;;;;;;;;;5043380;28;20334;-58
2023/01/09 03:05:19;;;;;;;13.37;10.80;;;;;;;;;;5052678;28;20223;-57
2023/01/09 03:07:48;;;;;;;11.90;10.53;;;;;;;;;;5068106;28;20263;-59
2023/01/09 03:10:18;;;;;;;15.43;12.10;;;;;;;;;;5076731;28;20241;-57
2023/01/09 03:12:45;;;;;;;12.97;11.40;;;;;;;;;;5060151;28;20315;-58
2023/01/09 03:15:12;;;;;;;11.90;9.83;;;;;;;;;;5062182;28;20230;-57
2023/01/09 03:17:41;;;;;;;16.73;13.03;;;;;;;;;;5057125;28;20267;-57
2023/01/09 03:20:10;;;;;;;12.63;10.50;;;;;;;;;;5080577;28;20290;-57
2023/01/09 03:22:38;;;;;;;14.27;10.97;;;;;;;;;;5072888;28;20265;-57
2023/01/09 03:25:05;;;;;;;15.07;11.13;;;;;;;;;;5066160;28;20239;-57
2023/01/09 03:27:32;;;;;;;15.17;12.00;;;;;;;;;;5063420;28;20293;-57
2023/01/09 03:29:58;;;;;;;14.47;12.13;;;;;;;;;;5083743;28;20242;-58
2023/01/09 03:32:26;;;;;;;13.33;11.27;;;;;;;;;;5077847;28;20230;-58
2023/01/09 03:34:53;;;;;;;15.37;11.77;;;;;;;;;;5069647;28;20248;-58
2023/01/09 03:37:19;;;;;;;14.07;11.47;;;;;;;;;;5055415;28;20237;-58
2023/01/09 03:39:47;;;;;;;13.57;11.80;;;;;;;;;;5050358;28;20235;-58
2023/01/09 03:42:13;;;;;;;12.67;11.33;;;;;;;;;;5066851;28;20234;-58
2023/01/09 03:44:39;;;;;;;13.90;11.03;;;;;;;;;;5060983;28;20227;-58
2023/01/09 03:47:06;;;;;;;14.30;11.53;;;;;;;;;;5045824;28;20698;-57
2023/01/09 03:49:32;;;;;;;15.80;12.10;;;;;;;;;;5044055;28;20260;-57
2023/01/09 03:51:59;;;;;;;12.83;11.37;;;;;;;;;;5043696;28;20685;-57
2023/01/09 03:54:25;;;;;;;15.70;12.47;;;;;;;;;;5054928;28;20244;-58
2023/01/09 03:56:53;;;;;;;14.93;11.83;;;;;;;;;;5028717;28;20619;-57
2023/01/09 03:59:19;;;;;;;14.57;12.47;;;;;;;;;;5047980;28;20231;-58
2023/01/09 04:01:46;;;;;;;13.53;11.87;;;;;;;;;;5070332;28;20234;-57
2023/01/09 04:04:15;;;;;;;16.07;12.23;;;;;;;;;;5089349;28;20230;-57
2023/01/09 04:06:41;;;;;;;11.83;10.57;;;;;;;;;;5088650;28;20227;-58
2023/01/09 04:09:08;;;;;;;13.37;12.00;;;;;;;;;;5060553;28;20231;-59
2023/01/09 04:11:34;;;;;;;13.20;11.43;;;;;;;;;;5065842;28;20233;-58
2023/01/09 04:14:02;;;;;;;15.27;12.20;;;;;;;;;;5071424;28;20258;-59
2023/01/09 04:16:28;;;;;;;12.93;11.67;;;;;;;;;;5066439;28;20232;-57
2023/01/09 04:18:55;;;;;;;14.67;11.73;;;;;;;;;;5078198;28;20233;-57
2023/01/09 04:21:21;;;;;;;13.00;11.50;;;;;;;;;;5068217;28;20239;-58
2023/01/09 04:23:47;;;;;;;14.90;11.83;;;;;;;;;;5058671;28;20324;-58
2023/01/09 04:26:14;;;;;;;13.20;11.80;;;;;;;;;;5079762;28;20301;-58
2023/01/09 04:28:40;;;;;;;15.27;12.73;;;;;;;;;;5068999;28;20631;-57
2023/01/09 04:31:08;;;;;;;13.80;11.33;;;;;;;;;;5077911;28;20223;-58
2023/01/09 04:33:35;;;;;;;17.00;12.90;;;;;;;;;;5064292;28;20319;-58
2023/01/09 04:36:05;;;;;;;14.73;12.43;;;;;;;;;;5067256;28;20791;-58
2023/01/09 04:38:32;;;;;;;13.00;11.77;;;;;;;;;;5067219;28;20596;-57
2023/01/09 04:40:58;;;;;;;15.00;11.43;;;;;;;;;;5041142;28;20240;-58
2023/01/09 04:43:25;;;;;;;15.40;12.30;;;;;;;;;;5049933;28;20224;-59
2023/01/09 04:45:51;;;;;;;13.57;11.17;;;;;;;;;;5048148;28;20633;-57
2023/01/09 04:48:19;;;;;;;12.90;11.57;;;;;;;;;;5053756;28;20232;-58
2023/01/09 04:50:45;;;;;;;14.27;11.93;;;;;;;;;;5043979;28;20567;-58
2023/01/09 04:53:12;;;;;;;16.30;12.50;;;;;;;;;;5051047;28;20336;-57
2023/01/09 04:55:40;;;;;;;14.83;11.37;;;;;;;;;;5066030;28;21806;-58
2023/01/09 04:58:06;;;;;;;14.40;12.07;;;;;;;;;;5071339;28;20239;-57
2023/01/09 05:00:32;;;;;;;12.40;10.97;;;;;;;;;;5057602;28;20235;-58
2023/01/09 05:03:01;;;;;;;15.60;12.37;;;;;;;;;;5060712;28;20309;-57
2023/01/09 05:05:29;;;;;;;16.40;12.97;;;;;;;;;;5050058;28;20231;-57
2023/01/09 05:07:55;;;;;;;14.80;11.37;;;;;;;;;;5075252;28;20230;-58
2023/01/09 05:10:22;;;;;;;14.47;11.50;;;;;;;;;;5061520;28;20231;-58
2023/01/09 05:12:48;;;;;;;16.13;12.03;;;;;;;;;;5065453;28;20287;-62
2023/01/09 05:15:15;;;;;;;15.60;12.90;;;;;;;;;;5071658;28;20833;-58
2023/01/09 05:17:41;;;;;;;14.43;12.33;;;;;;;;;;5071909;28;20305;-58
2023/01/09 05:20:08;;;;;;;14.13;12.73;;;;;;;;;;5042674;28;20877;-57
2023/01/09 05:22:36;;;;;;;16.50;12.13;;;;;;;;;;5054704;28;20328;-58
2023/01/09 05:25:02;;;;;;;15.97;13.63;;;;;;;;;;5074894;28;20227;-58
2023/01/09 05:27:29;;;;;;;13.43;11.63;;;;;;;;;;5066818;28;20661;-58
2023/01/09 05:29:55;;;;;;;14.63;12.43;;;;;;;;;;5062154;28;20310;-58
2023/01/09 05:32:22;;;;;;;14.07;12.20;;;;;;;;;;5070842;28;20310;-58
2023/01/09 05:34:48;;;;;;;14.83;11.87;;;;;;;;;;5051878;28;20416;-58
2023/01/09 05:37:14;;;;;;;14.80;11.97;;;;;;;;;;5063941;28;20963;-57
2023/01/09 05:39:42;;;;;;;13.63;11.27;;;;;;;;;;5074902;28;20240;-59
2023/01/09 05:42:09;;;;;;;14.90;11.17;;;;;;;;;;5055963;28;20259;-59
2023/01/09 05:44:35;;;;;;;13.10;11.70;;;;;;;;;;5054499;28;20234;-57
2023/01/09 05:47:01;;;;;;;12.63;11.27;;;;;;;;;;5055705;28;20780;-57
2023/01/09 05:49:28;;;;;;;13.63;11.77;;;;;;;;;;5045269;28;20240;-58
2023/01/09 05:51:54;;;;;;;13.03;11.57;;;;;;;;;;5048938;28;20224;-58
2023/01/09 05:54:20;;;;;;;13.90;11.67;;;;;;;;;;5067872;28;20254;-58
2023/01/09 05:56:48;;;;;;;13.97;11.23;;;;;;;;;;5061283;28;20605;-58
2023/01/09 05:59:15;;;;;;;15.33;11.33;;;;;;;;;;5075743;28;20730;-58
2023/01/09 06:01:41;;;;;;;14.80;11.50;;;;;;;;;;5063277;28;20232;-59
2023/01/09 06:04:07;;;;;;;15.93;12.30;;;;;;;;;;5065417;28;20235;-58
2023/01/09 06:06:34;;;;;;;15.77;13.07;;;;;;;;;;5066034;28;20220;-58
2023/01/09 06:09:00;;;;;;;14.13;12.03;;;;;;;;;;5065987;28;20502;-58
2023/01/09 06:11:26;;;;;;;15.53;11.97;;;;;;;;;;5050619;28;20262;-58
2023/01/09 06:13:54;;;;;;;17.70;13.77;;;;;;;;;;5074778;28;20689;-58
2023/01/09 06:16:21;;;;;;;12.47;11.17;;;;;;;;;;5067377;28;20231;-57
2023/01/09 06:18:47;;;;;;;14.17;11.87;;;;;;;;;;5071557;28;20237;-58
2023/01/09 06:21:13;;;;;;;13.43;11.77;;;;;;;;;;5067892;28;20227;-58
2023/01/09 06:23:40;;;;;;;15.70;12.97;;;;;;;;;;5066753;28;20241;-58
2023/01/09 06:26:06;;;;;;;18.53;13.30;;;;;;;;;;5073344;28;20234;-58
2023/01/09 06:28:33;;;;;;;15.77;13.33;;;;;;;;;;5069422;28;20310;-67
2023/01/09 06:31:00;;;;;;;13.27;11.73;;;;;;;;;;5057263;28;20788;-60
2023/01/09 06:33:27;;;;;;;15.83;13.57;;;;;;;;;;5038259;28;20784;-58
2023/01/09 06:35:55;;;;;;;16.37;12.33;;;;;;;;;;5061720;28;20231;-57
2023/01/09 06:38:21;;;;;;;18.17;13.67;;;;;;;;;;5042012;28;20252;-58
2023/01/09 06:40:49;;;;;;;16.20;12.87;;;;;;;;;;5044353;28;20228;-57
2023/01/09 06:43:15;;;;;;;14.27;12.23;;;;;;;;;;5045530;28;20314;-57
2023/01/09 06:45:42;;;;;;;17.70;13.27;;;;;;;;;;5031625;28;20232;-57
2023/01/09 06:48:10;;;;;;;18.80;13.90;;;;;;;;;;5045598;28;20232;-57
2023/01/09 06:50:36;;;;;;;16.17;12.60;;;;;;;;;;5062541;28;20256;-58
2023/01/09 06:53:02;;;;;;;13.87;12.37;;;;;;;;;;5051004;28;20820;-57
2023/01/09 06:55:29;;;;;;;14.40;12.57;;;;;;;;;;5070808;28;20231;-57
2023/01/09 06:57:55;;;;;;;14.30;12.33;;;;;;;;;;5060689;28;20247;-57
2023/01/09 07:00:22;;;;;;;16.37;14.57;;;;;;;;;;5049718;28;20335;-57
2023/01/09 07:02:48;;;;;;;15.97;14.07;;;;;;;;;;5054498;28;20240;-57
2023/01/09 07:05:16;;;;;;;18.90;13.87;;;;;;;;;;5080809;28;20666;-57
2023/01/09 07:07:42;;;;;;;17.17;14.37;;;;;;;;;;5044061;28;20229;-62
2023/01/09 07:10:09;;;;;;;15.77;12.80;;;;;;;;;;5065618;28;20737;-58
2023/01/09 07:12:36;;;;;;;17.70;12.97;;;;;;;;;;5053247;28;20230;-57
2023/01/09 07:15:02;;;;;;;20.33;15.53;;;;;;;;;;5064375;28;20247;-58
2023/01/09 07:17:29;;;;;;;18.30;13.57;;;;;;;;;;5073126;28;20704;-58
2023/01/09 07:19:55;;;;;;;15.20;12.47;;;;;;;;;;5059687;28;20326;-58
2023/01/09 07:22:23;;;;;;;18.27;13.57;;;;;;;;;;5064148;28;20316;-57
2023/01/09 07:24:49;;;;;;;14.83;13.07;;;;;;;;;;5085880;28;20607;-58
2023/01/09 07:27:16;;;;;;;17.20;14.50;;;;;;;;;;5067777;28;20324;-56
2023/01/09 07:29:42;;;;;;;16.00;13.00;;;;;;;;;;5043261;28;20239;-58
2023/01/09 07:32:08;;;;;;;15.97;12.30;;;;;;;;;;5072291;28;20236;-58
2023/01/09 07:34:35;;;;;;;16.53;12.33;;;;;;;;;;5065206;28;20266;-58
2023/01/09 07:37:01;;;;;;;15.37;13.77;;;;;;;;;;5061855;28;20308;-58
2023/01/09 07:39:29;;;;;;;16.53;13.97;;;;;;;;;;5048383;28;20255;-58
2023/01/09 07:41:55;;;;;;;17.27;13.00;;;;;;;;;;5044744;28;20247;-58
2023/01/09 07:44:22;;;;;;;16.97;12.97;;;;;;;;;;5051424;28;20256;-58
2023/01/09 07:46:48;;;;;;;17.20;13.57;;;;;;;;;;5072543;28;20238;-57
2023/01/09 07:49:14;;;;;;;16.80;12.20;;;;;;;;;;5080948;28;20257;-58
2023/01/09 07:51:43;;;;;;;15.13;12.20;;;;;;;;;;5062187;28;20231;-57
2023/01/09 07:54:09;;;;;;;13.60;11.77;;;;;;;;;;5070796;28;20244;-58
2023/01/09 07:56:37;;;;;;;14.93;12.93;;;;;;;;;;5065134;28;20286;-61
2023/01/09 07:59:04;;;;;;;16.87;12.53;;;;;;;;;;5075382;28;20311;-57
2023/01/09 08:01:30;;;;;;;14.07;12.57;;;;;;;;;;5065241;28;20238;-57
2023/01/09 08:03:57;;;;;;;14.87;13.37;;;;;;;;;;5076548;28;20234;-57
2023/01/09 08:06:23;;;;;;;14.93;12.23;;;;;;;;;;5060350;28;20321;-57
2023/01/09 08:08:50;;;;;;;20.70;12.63;;;;;;;;;;5073631;28;20266;-60
2023/01/09 08:11:16;;;;;;;16.37;13.27;;;;;;;;;;5083606;28;20231;-63
2023/01/09 08:13:44;;;;;;;16.13;13.67;;;;;;;;;;5078226;28;20579;-58
2023/01/09 08:16:10;;;;;;;16.37;12.67;;;;;;;;;;5088141;28;20545;-62
2023/01/09 08:18:36;;;;;;;15.90;12.00;;;;;;;;;;5075918;28;20314;-58
2023/01/09 08:21:03;;;;;;;13.77;12.30;;;;;;;;;;5070273;28;20227;-57
2023/01/09 08:23:29;;;;;;;13.73;12.30;;;;;;;;;;5068398;28;20261;-57
2023/01/09 08:25:56;;;;;;;14.87;12.03;;;;;;;;;;5060191;28;20319;-58
2023/01/09 08:28:22;;;;;;;17.00;12.83;;;;;;;;;;5051788;28;20235;-57
2023/01/09 08:30:50;;;;;;;15.17;12.57;;;;;;;;;;5044411;28;20236;-57
2023/01/09 08:33:16;;;;;;;15.50;12.67;;;;;;;;;;5052314;28;20259;-58
2023/01/09 08:35:45;;;;;;;16.10;13.33;;;;;;;;;;5049089;28;20226;-57
2023/01/09 08:38:12;;;;;;;16.37;13.07;;;;;;;;;;5048372;28;20258;-57
2023/01/09 08:40:38;;;;;;;16.10;13.27;;;;;;;;;;5063494;28;20235;-56
2023/01/09 08:48:36;;;;;;;17.70;12.70;;;;;;;;;;5048227;28;20709;-58
2023/01/09 08:51:02;;;;;;;17.00;13.07;;;;;;;;;;5036448;28;20607;-58
2023/01/09 08:53:34;;;;;;;18.30;13.37;;;;;;;;;;5057069;28;20231;-58
2023/01/09 08:56:00;;;;;;;15.77;13.10;;;;;;;;;;5062609;28;20461;-59
2023/01/09 08:58:27;;;;;;;17.03;13.50;;;;;;;;;;5071093;28;20314;-58
2023/01/09 09:00:54;;;;;;;14.33;11.73;;;;;;;;;;5057263;28;20265;-58
2023/01/09 09:03:21;;;;;;;15.77;13.13;;;;;;;;;;5039690;28;20232;-59
2023/01/09 09:05:48;;;;;;;19.33;14.73;;;;;;;;;;5057416;28;20315;-58
2023/01/09 09:08:15;;;;;;;16.23;12.90;;;;;;;;;;5061480;28;20231;-57
2023/01/09 09:10:41;;;;;;;15.53;13.30;;;;;;;;;;5060667;28;20237;-59
2023/01/09 09:13:08;;;;;;;20.03;14.40;;;;;;;;;;5069004;28;20321;-57
2023/01/09 09:15:37;;;;;;;17.53;13.27;;;;;;;;;;5059305;28;20233;-58
2023/01/09 09:18:05;;;;;;;15.13;12.60;;;;;;;;;;5073608;28;20608;-58
2023/01/09 09:20:33;;;;;;;15.30;11.90;;;;;;;;;;5068256;28;20939;-58
2023/01/09 09:22:59;;;;;;;16.83;13.13;;;;;;;;;;5059669;28;20243;-57
2023/01/09 09:25:26;;;;;;;17.03;13.30;;;;;;;;;;5055481;28;20598;-58
2023/01/09 09:27:54;;;;;;;15.30;12.30;;;;;;;;;;5055497;28;20331;-59
2023/01/09 09:30:21;;;;;;;15.23;11.57;;;;;;;;;;5035608;28;20328;-59
2023/01/09 09:32:48;;;;;;;15.00;12.30;;;;;;;;;;5054537;28;20258;-57
2023/01/09 09:35:16;;;;;;;14.23;11.53;;;;;;;;;;5041207;28;20235;-57
2023/01/09 09:37:43;;;;;;;14.50;11.77;;;;;;;;;;5082827;28;20235;-59
2023/01/09 09:40:11;;;;;;;15.57;12.10;;;;;;;;;;5059149;28;20227;-57
2023/01/09 09:45:45;;;;;;;18.67;12.97;;;;;;;;;;5046754;28;20242;-59
2023/01/09 09:48:19;;;;;;;16.87;12.20;;;;;;;;;;5051021;28;20231;-57
2023/01/09 09:51:00;;;;;;;16.00;12.30;;;;;;;;;;5043793;28;20602;-58
2023/01/09 09:53:31;;;;;;;14.07;11.20;;;;;;;;;;5026988;28;20288;-57
2023/01/09 09:55:57;;;;;;;15.70;11.20;;;;;;;;;;5053205;28;20232;-57
2023/01/09 09:58:27;;;;;;;13.27;10.63;;;;;;;;;;5052145;28;20249;-58
2023/01/09 10:00:54;;;;;;;13.03;11.30;;;;;;;;;;5052732;28;20774;-58
2023/01/09 10:03:24;;;;;;;13.93;11.10;;;;;;;;;;5058862;28;20296;-57
2023/01/09 10:05:51;;;;;;;14.07;11.30;;;;;;;;;;5050595;28;20318;-56
2023/01/09 10:08:23;;;;;;;11.87;10.23;;;;;;;;;;5063487;28;20232;-57
2023/01/09 10:10:52;;;;;;;12.90;10.87;;;;;;;;;;5054714;28;20247;-59
2023/01/09 10:16:07;;;;;;;15.27;10.07;;;;;;;;;;5044983;28;20270;-57
2023/01/09 10:18:42;;;;;;;10.93;9.83;;;;;;;;;;5051460;28;20247;-59
2023/01/09 10:21:13;;;;;;;12.23;9.87;;;;;;;;;;5054485;28;20246;-57
2023/01/09 10:24:00;;;;;;;13.80;10.47;;;;;;;;;;5051876;28;20815;-57
2023/01/09 10:26:32;;;;;;;11.90;9.50;;;;;;;;;;5030328;28;20606;-55
2023/01/09 10:29:13;;;;;;;13.33;10.50;;;;;;;;;;5048501;28;20236;-56
2023/01/09 10:31:44;;;;;;;11.07;9.60;;;;;;;;;;5038915;28;20242;-57
2023/01/09 10:34:14;;;;;;;12.17;9.40;;;;;;;;;;5051295;28;20333;-57
2023/01/09 10:36:50;;;;;;;10.83;8.03;;;;;;;;;;5040009;28;20279;-57
2023/01/09 10:39:19;;;;;;;10.07;8.30;;;;;;;;;;5046121;28;20235;-56
2023/01/09 10:41:51;;;;;;;9.27;7.90;;;;;;;;;;5042021;28;20815;-57
2023/01/09 10:44:20;;;;;;;8.47;7.67;;;;;;;;;;5044838;28;20246;-56
2023/01/09 10:46:48;;;;;;;10.43;7.17;;;;;;;;;;5048315;28;20234;-56
2023/01/09 10:49:16;;;;;;;33.80;27.27;;;;;;;;;;5056082;28;20300;-57
2023/01/09 10:51:45;;;;;;;11.13;8.30;;;;;;;;;;5045689;28;20302;-57
2023/01/09 10:54:13;;;;;;;8.77;7.87;;;;;;;;;;5065024;28;20242;-57
2023/01/09 10:56:40;;;;;;;9.97;7.30;;;;;;;;;;5053211;28;20807;-56
2023/01/09 10:59:09;;;;;;;7.27;6.43;;;;;;;;;;5056046;28;20310;-58
2023/01/09 11:01:38;;;;;;;7.63;6.70;;;;;;;;;;5033480;28;20265;-57
2023/01/09 11:04:16;;;;;;;7.80;6.07;;;;;;;;;;5049559;28;20260;-57
2023/01/09 11:06:45;;;;;;;7.53;5.83;;;;;;;;;;5056048;28;20318;-57
2023/01/09 11:09:13;;;;;;;6.50;5.90;;;;;;;;;;5043538;28;20242;-57
2023/01/09 11:11:40;;;;;;;11.30;6.80;;;;;;;;;;5034895;28;20678;-58
2023/01/09 11:14:13;;;;;;;6.13;5.53;;;;;;;;;;5033076;28;20235;-57
2023/01/09 11:16:50;;;;;;;6.67;6.07;;;;;;;;;;5042073;28;20278;-58
2023/01/09 11:19:16;;;;;;;7.30;6.07;;;;;;;;;;5040994;28;20238;-58
2023/01/09 11:21:43;;;;;;;6.50;5.30;;;;;;;;;;5029501;28;20235;-56
2023/01/09 11:24:30;;;;;;;5.90;5.27;;;;;;;;;;5038721;28;20229;-56
2023/01/09 11:27:24;;;;;;;5.77;4.93;;;;;;;;;;5038302;28;20228;-57
2023/01/09 11:30:14;;;;;;;11.63;9.60;;;;;;;;;;5008830;28;20350;-56
2023/01/09 11:32:41;;;;;;;11.70;5.63;;;;;;;;;;5043228;28;20694;-56
2023/01/09 11:35:15;;;;;;;4.77;4.37;;;;;;;;;;5033442;28;20236;-57
2023/01/09 11:37:41;;;;;;;6.03;4.53;;;;;;;;;;5041759;28;20921;-59
2023/01/09 11:40:16;;;;;;;4.37;3.70;;;;;;;;;;5046539;28;20330;-56
2023/01/09 11:43:00;;;;;;;6.67;4.37;;;;;;;;;;5053161;28;20239;-56
2023/01/09 11:45:30;;;;;;;4.67;4.07;;;;;;;;;;5051605;28;20235;-59
2023/01/09 11:47:56;;;;;;;4.47;4.07;;;;;;;;;;5039444;28;20231;-57
2023/01/09 11:50:24;;;;;;;4.67;4.10;;;;;;;;;;5050751;28;20326;-57
2023/01/09 11:53:07;;;;;;;6.13;4.90;;;;;;;;;;5040884;28;20329;-60
2023/01/09 11:55:34;;;;;;;4.40;3.97;;;;;;;;;;5037224;28;20503;-57
2023/01/09 11:58:00;;;;;;;4.60;4.10;;;;;;;;;;5031817;28;20609;-57
2023/01/09 12:00:29;;;;;;;3.90;3.50;;;;;;;;;;5057307;28;20324;-56
2023/01/09 12:03:04;;;;;;;6.27;4.20;;;;;;;;;;5063631;28;20318;-58
2023/01/09 12:05:36;;;;;;;4.20;3.73;;;;;;;;;;5035016;28;20864;-57
2023/01/09 12:08:08;;;;;;;5.17;3.50;;;;;;;;;;5045339;28;20234;-57
2023/01/09 12:10:45;;;;;;;4.57;3.70;;;;;;;;;;5039922;28;20324;-57
2023/01/09 12:13:18;;;;;;;5.00;3.33;;;;;;;;;;5042485;28;20238;-59
2023/01/09 12:15:51;;;;;;;2.93;2.73;;;;;;;;;;5043616;28;20239;-56
2023/01/09 12:18:24;;;;;;;4.07;2.80;;;;;;;;;;5041651;28;20267;-56
2023/01/09 12:20:55;;;;;;;4.30;2.70;;;;;;;;;;5062089;28;20312;-58
2023/01/09 12:23:28;;;;;;;3.13;2.73;;;;;;;;;;5032807;28;20311;-57
2023/01/09 12:26:00;;;;;;;4.07;2.53;;;;;;;;;;5051119;28;20756;-61
2023/01/09 12:28:37;;;;;;;54.10;36.90;;;;;;;;;;5061711;28;20651;-57
2023/01/09 12:31:10;;;;;;;4.83;3.70;;;;;;;;;;5046217;28;20232;-57
2023/01/09 12:33:42;;;;;;;3.17;2.60;;;;;;;;;;5053457;28;20663;-57
2023/01/09 12:36:16;;;;;;;4.07;2.67;;;;;;;;;;5058617;28;20318;-57
2023/01/09 12:38:47;;;;;;;5.20;2.73;;;;;;;;;;5048500;28;20286;-57
2023/01/09 12:41:21;;;;;;;5.23;2.40;;;;;;;;;;5038049;28;20702;-57
2023/01/09 12:43:52;;;;;;;4.97;2.90;;;;;;;;;;5043406;28;20726;-61
2023/01/09 12:46:20;;;;;;;6.53;3.13;;;;;;;;;;5052217;28;20253;-54
2023/01/09 12:48:55;;;;;;;2.47;2.23;;;;;;;;;;5041481;28;20231;-56
2023/01/09 12:51:28;;;;;;;4.10;2.87;;;;;;;;;;5036561;28;20730;-56
2023/01/09 12:53:57;;;;;;;3.33;2.50;;;;;;;;;;5056201;28;20239;-58
2023/01/09 12:56:25;;;;;;;9.03;2.80;;;;;;;;;;5054942;28;20240;-57
2023/01/09 12:58:54;;;;;;;5.77;2.80;;;;;;;;;;5043873;28;20316;-57
2023/01/09 13:01:23;;;;;;;6.07;4.53;;;;;;;;;;5051223;28;20253;-59
2023/01/09 13:03:53;;;;;;;4.50;2.50;;;;;;;;;;5047068;28;20232;-56
2023/01/09 13:06:21;;;;;;;5.67;3.20;;;;;;;;;;5065157;28;20242;-57
2023/01/09 13:08:49;;;;;;;2.80;2.03;;;;;;;;;;5058340;28;20251;-56
2023/01/09 13:11:17;;;;;;;3.33;3.03;;;;;;;;;;5050442;28;20223;-57
2023/01/09 13:13:46;;;;;;;2.37;2.17;;;;;;;;;;5042204;28;20313;-56
2023/01/09 13:16:15;;;;;;;2.20;2.10;;;;;;;;;;5049723;28;20781;-57
2023/01/09 13:18:45;;;;;;;6.93;2.50;;;;;;;;;;5040565;28;20239;-57
2023/01/09 13:21:12;;;;;;;6.10;2.30;;;;;;;;;;5038140;28;20255;-56
2023/01/09 13:23:41;;;;;;;2.63;2.30;;;;;;;;;;5040179;28;20285;-56
2023/01/09 13:26:10;;;;;;;3.70;2.43;;;;;;;;;;5044606;28;20281;-57
2023/01/09 13:28:41;;;;;;;4.33;2.50;;;;;;;;;;5052824;28;20247;-57
2023/01/09 13:31:25;;;;;;;3.50;2.57;;;;;;;;;;5037626;28;20377;-56
2023/01/09 13:33:54;;;;;;;4.20;2.37;;;;;;;;;;5053179;28;20327;-57
2023/01/09 13:36:23;;;;;;;2.47;1.77;;;;;;;;;;5059139;28;20655;-58
2023/01/09 13:38:49;;;;;;;3.37;2.17;;;;;;;;;;5038118;28;20239;-56
2023/01/09 13:44:02;;;;;;;3.77;2.60;;;;;;;;;;5044413;28;20245;-57
2023/01/09 13:46:34;;;;;;;2.97;2.17;;;;;;;;;;5047615;28;20455;-57
2023/01/09 13:49:02;;;;;;;3.50;2.40;;;;;;;;;;5041300;28;20295;-58
2023/01/09 13:51:36;;;;;;;3.37;2.10;;;;;;;;;;5031537;28;20237;-56
2023/01/09 13:54:03;;;;;;;5.73;2.50;;;;;;;;;;5043365;28;20236;-58
2023/01/09 13:56:29;;;;;;;3.03;2.17;;;;;;;;;;5050327;28;20319;-58
2023/01/09 13:59:04;;;;;;;3.47;1.87;;;;;;;;;;5034883;28;20320;-58
2023/01/09 14:01:49;;;;;;;4.30;3.90;;;;;;;;;;5036003;28;20259;-57
2023/01/09 14:04:34;;;;;;;7.33;2.83;;;;;;;;;;5043069;28;20335;-57
2023/01/09 14:07:19;;;;;;;1.67;1.57;;;;;;;;;;5043604;28;20251;-57
2023/01/09 14:09:49;;;;;;;2.67;2.07;;;;;;;;;;5034884;28;21437;-58
2023/01/09 14:12:16;;;;;;;4.03;2.20;;;;;;;;;;5056810;28;20328;-58
2023/01/09 14:14:44;;;;;;;3.27;1.70;;;;;;;;;;5043746;28;20874;-57
2023/01/09 14:17:16;;;;;;;6.87;2.03;;;;;;;;;;5042106;28;20768;-57
2023/01/09 14:19:42;;;;;;;3.90;1.70;;;;;;;;;;5055227;28;20231;-57
2023/01/09 14:22:22;;;;;;;2.47;2.27;;;;;;;;;;5056935;28;20251;-65
2023/01/09 14:24:52;;;;;;;2.50;1.73;;;;;;;;;;5038885;28;20670;-57
2023/01/09 14:27:37;;;;;;;2.13;1.93;;;;;;;;;;5037826;28;20299;-58
2023/01/09 14:30:26;;;;;;;2.87;1.90;;;;;;;;;;5040029;28;20258;-57
2023/01/09 14:32:56;;;;;;;4.10;1.70;;;;;;;;;;5041887;28;20227;-61
2023/01/09 14:35:27;;;;;;;2.70;1.67;;;;;;;;;;5044418;28;20236;-57
2023/01/09 14:38:02;;;;;;;2.77;2.00;;;;;;;;;;5048450;28;20227;-58
2023/01/09 14:40:30;;;;;;;2.70;1.80;;;;;;;;;;5062357;28;20231;-57
2023/01/09 14:42:59;;;;;;;4.03;2.03;;;;;;;;;;5051168;28;20267;-59
2023/01/09 14:45:27;;;;;;;3.43;2.40;;;;;;;;;;5069504;28;20234;-56
2023/01/09 14:47:56;;;;;;;2.87;1.80;;;;;;;;;;5062363;28;20677;-59
2023/01/09 14:50:28;;;;;;;8.50;2.07;;;;;;;;;;5043159;28;20262;-58
2023/01/09 14:52:58;;;;;;;1.90;1.50;;;;;;;;;;5061193;28;20231;-58
2023/01/09 14:55:26;;;;;;;3.10;2.40;;;;;;;;;;5068977;28;20233;-57